sensor_id;sensor_type;location;lat;lon;timestamp;temperature;humidity
24678;DHT22;12800;53.094;8.778;2023-06-22T00:00:56;21.10;70.80
24678;DHT22;12800;53.094;8.778;2023-06-22T00:03:23;21.10;71.00
24678;DHT22;12800;53.094;8.778;2023-06-22T00:05:50;21.10;71.10
24678;DHT22;12800;53.094;8.778;2023-06-22T00:08:17;21.10;71.20
24678;DHT22;12800;53.094;8.778;2023-06-22T00:10:43;21.00;71.10
24678;DHT22;12800;53.094;8.778;2023-06-22T00:13:09;21.00;71.20
24678;DHT22;12800;53.094;8.778;2023-06-22T00:15:36;20.90;71.20
24678;DHT22;12800;53.094;8.778;2023-06-22T00:18:02;20.90;71.40
24678;DHT22;12800;53.094;8.778;2023-06-22T00:20:28;20.90;71.60
24678;DHT22;12800;53.094;8.778;2023-06-22T00:22:56;20.90;71.60
24678;DHT22;12800;53.094;8.778;2023-06-22T00:25:22;20.90;71.60
24678;DHT22;12800;53.094;8.778;2023-06-22T00:27:48;20.90;71.70
24678;DHT22;12800;53.094;8.778;2023-06-22T00:30:15;20.90;71.70
24678;DHT22;12800;53.094;8.778;2023-06-22T00:32:40;20.90;71.70
24678;DHT22;12800;53.094;8.778;2023-06-22T00:35:07;20.90;71.90
24678;DHT22;12800;53.094;8.778;2023-06-22T00:37:32;20.90;72.00
24678;DHT22;12800;53.094;8.778;2023-06-22T00:39:58;20.90;72.20
24678;DHT22;12800;53.094;8.778;2023-06-22T00:42:24;20.90;72.20
24678;DHT22;12800;53.094;8.778;2023-06-22T00:44:50;20.90;72.20
24678;DHT22;12800;53.094;8.778;2023-06-22T00:47:17;20.80;72.30
24678;DHT22;12800;53.094;8.778;2023-06-22T00:49:43;20.80;72.30
24678;DHT22;12800;53.094;8.778;2023-06-22T00:52:10;20.80;72.50
24678;DHT22;12800;53.094;8.778;2023-06-22T00:54:42;20.70;72.50
24678;DHT22;12800;53.094;8.778;2023-06-22T00:57:12;20.70;72.60
24678;DHT22;12800;53.094;8.778;2023-06-22T00:59:43;20.60;73.40
24678;DHT22;12800;53.094;8.778;2023-06-22T01:02:09;20.70;72.80
24678;DHT22;12800;53.094;8.778;2023-06-22T01:04:36;20.70;73.00
24678;DHT22;12800;53.094;8.778;2023-06-22T01:09:39;20.60;72.90
24678;DHT22;12800;53.094;8.778;2023-06-22T01:12:09;20.50;73.10
24678;DHT22;12800;53.094;8.778;2023-06-22T01:14:55;20.50;74.00
24678;DHT22;12800;53.094;8.778;2023-06-22T01:17:23;20.50;73.30
24678;DHT22;12800;53.094;8.778;2023-06-22T01:19:51;20.50;73.40
24678;DHT22;12800;53.094;8.778;2023-06-22T01:22:24;20.50;73.40
24678;DHT22;12800;53.094;8.778;2023-06-22T01:27:50;20.40;73.60
24678;DHT22;12800;53.094;8.778;2023-06-22T01:30:19;20.40;73.70
24678;DHT22;12800;53.094;8.778;2023-06-22T01:32:45;20.30;73.70
24678;DHT22;12800;53.094;8.778;2023-06-22T01:35:12;20.30;74.00
24678;DHT22;12800;53.094;8.778;2023-06-22T01:37:38;20.20;74.90
24678;DHT22;12800;53.094;8.778;2023-06-22T01:40:05;20.20;74.00
24678;DHT22;12800;53.094;8.778;2023-06-22T01:42:32;20.20;74.20
24678;DHT22;12800;53.094;8.778;2023-06-22T01:44:59;20.20;74.30
24678;DHT22;12800;53.094;8.778;2023-06-22T01:47:25;20.20;74.40
24678;DHT22;12800;53.094;8.778;2023-06-22T01:49:53;20.10;74.30
24678;DHT22;12800;53.094;8.778;2023-06-22T01:52:19;20.10;74.50
24678;DHT22;12800;53.094;8.778;2023-06-22T01:54:46;20.10;74.40
24678;DHT22;12800;53.094;8.778;2023-06-22T01:57:12;20.10;74.50
24678;DHT22;12800;53.094;8.778;2023-06-22T02:02:21;20.00;74.80
24678;DHT22;12800;53.094;8.778;2023-06-22T02:05:00;20.00;74.90
24678;DHT22;12800;53.094;8.778;2023-06-22T02:07:31;20.00;75.00
24678;DHT22;12800;53.094;8.778;2023-06-22T02:09:58;20.00;75.00
24678;DHT22;12800;53.094;8.778;2023-06-22T02:12:26;20.00;75.10
24678;DHT22;12800;53.094;8.778;2023-06-22T02:14:53;20.00;75.10
24678;DHT22;12800;53.094;8.778;2023-06-22T02:17:19;20.00;75.20
24678;DHT22;12800;53.094;8.778;2023-06-22T02:19:45;20.00;75.20
24678;DHT22;12800;53.094;8.778;2023-06-22T02:22:11;19.90;75.10
24678;DHT22;12800;53.094;8.778;2023-06-22T02:24:38;19.90;75.10
24678;DHT22;12800;53.094;8.778;2023-06-22T02:27:04;19.90;75.00
24678;DHT22;12800;53.094;8.778;2023-06-22T02:29:31;19.90;75.00
24678;DHT22;12800;53.094;8.778;2023-06-22T02:31:57;19.90;75.00
24678;DHT22;12800;53.094;8.778;2023-06-22T02:34:22;19.90;74.90
24678;DHT22;12800;53.094;8.778;2023-06-22T02:36:48;19.90;74.90
24678;DHT22;12800;53.094;8.778;2023-06-22T02:39:21;19.90;74.80
24678;DHT22;12800;53.094;8.778;2023-06-22T02:41:52;19.90;74.90
24678;DHT22;12800;53.094;8.778;2023-06-22T02:44:18;19.90;74.90
24678;DHT22;12800;53.094;8.778;2023-06-22T02:46:44;19.90;74.90
24678;DHT22;12800;53.094;8.778;2023-06-22T02:49:10;19.90;75.00
24678;DHT22;12800;53.094;8.778;2023-06-22T02:51:38;19.90;75.30
24678;DHT22;12800;53.094;8.778;2023-06-22T02:54:07;19.90;75.10
24678;DHT22;12800;53.094;8.778;2023-06-22T02:56:33;19.80;75.00
24678;DHT22;12800;53.094;8.778;2023-06-22T02:58:59;19.80;75.00
24678;DHT22;12800;53.094;8.778;2023-06-22T03:01:30;19.80;75.00
24678;DHT22;12800;53.094;8.778;2023-06-22T03:04:03;19.80;75.10
24678;DHT22;12800;53.094;8.778;2023-06-22T03:06:30;19.70;75.20
24678;DHT22;12800;53.094;8.778;2023-06-22T03:09:01;19.70;75.30
24678;DHT22;12800;53.094;8.778;2023-06-22T03:11:29;19.70;75.30
24678;DHT22;12800;53.094;8.778;2023-06-22T03:13:55;19.70;75.40
24678;DHT22;12800;53.094;8.778;2023-06-22T03:16:20;19.70;75.30
24678;DHT22;12800;53.094;8.778;2023-06-22T03:18:46;19.70;75.30
24678;DHT22;12800;53.094;8.778;2023-06-22T03:21:11;19.70;75.40
24678;DHT22;12800;53.094;8.778;2023-06-22T03:23:37;19.70;75.30
24678;DHT22;12800;53.094;8.778;2023-06-22T03:26:03;19.70;75.30
24678;DHT22;12800;53.094;8.778;2023-06-22T03:28:29;19.70;75.40
24678;DHT22;12800;53.094;8.778;2023-06-22T03:30:57;19.70;75.40
24678;DHT22;12800;53.094;8.778;2023-06-22T03:33:23;19.70;75.40
24678;DHT22;12800;53.094;8.778;2023-06-22T03:35:48;19.80;76.40
24678;DHT22;12800;53.094;8.778;2023-06-22T03:38:16;19.80;75.60
24678;DHT22;12800;53.094;8.778;2023-06-22T03:40:41;19.80;75.60
24678;DHT22;12800;53.094;8.778;2023-06-22T03:43:07;19.80;75.60
24678;DHT22;12800;53.094;8.778;2023-06-22T03:45:32;19.80;75.50
24678;DHT22;12800;53.094;8.778;2023-06-22T03:47:58;19.80;75.60
24678;DHT22;12800;53.094;8.778;2023-06-22T03:50:24;19.80;75.50
24678;DHT22;12800;53.094;8.778;2023-06-22T03:52:49;19.80;75.50
24678;DHT22;12800;53.094;8.778;2023-06-22T03:55:16;19.80;75.60
24678;DHT22;12800;53.094;8.778;2023-06-22T03:57:42;19.80;75.60
24678;DHT22;12800;53.094;8.778;2023-06-22T04:00:08;19.90;75.60
24678;DHT22;12800;53.094;8.778;2023-06-22T04:02:35;19.90;75.60
24678;DHT22;12800;53.094;8.778;2023-06-22T04:05:00;19.90;75.70
24678;DHT22;12800;53.094;8.778;2023-06-22T04:07:26;19.90;75.60
24678;DHT22;12800;53.094;8.778;2023-06-22T04:09:52;20.00;75.60
24678;DHT22;12800;53.094;8.778;2023-06-22T04:12:17;20.00;75.60
24678;DHT22;12800;53.094;8.778;2023-06-22T04:14:43;20.00;75.60
24678;DHT22;12800;53.094;8.778;2023-06-22T04:17:08;20.00;75.50
24678;DHT22;12800;53.094;8.778;2023-06-22T04:19:34;20.00;75.60
24678;DHT22;12800;53.094;8.778;2023-06-22T04:22:00;20.00;75.70
24678;DHT22;12800;53.094;8.778;2023-06-22T04:24:25;20.00;75.60
24678;DHT22;12800;53.094;8.778;2023-06-22T04:26:51;20.00;75.70
24678;DHT22;12800;53.094;8.778;2023-06-22T04:29:20;20.10;75.80
24678;DHT22;12800;53.094;8.778;2023-06-22T04:31:47;20.10;75.80
24678;DHT22;12800;53.094;8.778;2023-06-22T04:34:17;20.10;75.80
24678;DHT22;12800;53.094;8.778;2023-06-22T04:36:42;20.10;75.70
24678;DHT22;12800;53.094;8.778;2023-06-22T04:39:10;20.20;75.80
24678;DHT22;12800;53.094;8.778;2023-06-22T04:41:37;20.20;75.90
24678;DHT22;12800;53.094;8.778;2023-06-22T04:44:15;20.20;75.90
24678;DHT22;12800;53.094;8.778;2023-06-22T04:47:02;20.20;75.70
24678;DHT22;12800;53.094;8.778;2023-06-22T04:49:34;20.20;75.70
24678;DHT22;12800;53.094;8.778;2023-06-22T04:52:06;20.20;75.70
24678;DHT22;12800;53.094;8.778;2023-06-22T04:54:33;20.20;75.80
24678;DHT22;12800;53.094;8.778;2023-06-22T04:57:03;20.20;75.80
24678;DHT22;12800;53.094;8.778;2023-06-22T04:59:30;20.30;75.70
24678;DHT22;12800;53.094;8.778;2023-06-22T05:02:00;20.30;75.90
24678;DHT22;12800;53.094;8.778;2023-06-22T05:04:28;20.30;75.80
24678;DHT22;12800;53.094;8.778;2023-06-22T05:06:56;20.40;75.70
24678;DHT22;12800;53.094;8.778;2023-06-22T05:09:22;20.40;75.70
24678;DHT22;12800;53.094;8.778;2023-06-22T05:11:48;20.40;75.70
24678;DHT22;12800;53.094;8.778;2023-06-22T05:14:14;20.50;75.60
24678;DHT22;12800;53.094;8.778;2023-06-22T05:16:41;20.40;75.50
24678;DHT22;12800;53.094;8.778;2023-06-22T05:19:07;20.50;75.80
24678;DHT22;12800;53.094;8.778;2023-06-22T05:21:33;20.50;76.60
24678;DHT22;12800;53.094;8.778;2023-06-22T05:23:59;20.60;75.80
24678;DHT22;12800;53.094;8.778;2023-06-22T05:26:31;20.60;75.80
24678;DHT22;12800;53.094;8.778;2023-06-22T05:28:59;20.70;75.70
24678;DHT22;12800;53.094;8.778;2023-06-22T05:31:26;20.80;75.50
24678;DHT22;12800;53.094;8.778;2023-06-22T05:33:53;20.90;75.30
24678;DHT22;12800;53.094;8.778;2023-06-22T05:36:19;20.90;75.10
24678;DHT22;12800;53.094;8.778;2023-06-22T05:38:52;21.00;74.80
24678;DHT22;12800;53.094;8.778;2023-06-22T05:41:18;21.10;74.60
24678;DHT22;12800;53.094;8.778;2023-06-22T05:43:43;21.10;74.20
24678;DHT22;12800;53.094;8.778;2023-06-22T05:46:09;21.10;74.10
24678;DHT22;12800;53.094;8.778;2023-06-22T05:48:35;21.10;74.00
24678;DHT22;12800;53.094;8.778;2023-06-22T05:51:00;21.10;74.00
24678;DHT22;12800;53.094;8.778;2023-06-22T05:53:26;21.10;74.10
24678;DHT22;12800;53.094;8.778;2023-06-22T05:55:52;21.10;73.90
24678;DHT22;12800;53.094;8.778;2023-06-22T05:58:17;21.20;73.60
24678;DHT22;12800;53.094;8.778;2023-06-22T06:00:43;21.20;73.30
24678;DHT22;12800;53.094;8.778;2023-06-22T06:03:10;21.30;73.40
24678;DHT22;12800;53.094;8.778;2023-06-22T06:05:36;21.40;73.40
24678;DHT22;12800;53.094;8.778;2023-06-22T06:08:04;21.40;73.40
24678;DHT22;12800;53.094;8.778;2023-06-22T06:10:31;21.40;73.00
24678;DHT22;12800;53.094;8.778;2023-06-22T06:12:57;21.40;73.00
24678;DHT22;12800;53.094;8.778;2023-06-22T06:15:23;21.40;73.10
24678;DHT22;12800;53.094;8.778;2023-06-22T06:17:52;21.40;73.10
24678;DHT22;12800;53.094;8.778;2023-06-22T06:20:19;21.40;73.00
24678;DHT22;12800;53.094;8.778;2023-06-22T06:22:45;21.30;73.80
24678;DHT22;12800;53.094;8.778;2023-06-22T06:25:11;21.40;73.20
24678;DHT22;12800;53.094;8.778;2023-06-22T06:27:44;21.30;73.30
24678;DHT22;12800;53.094;8.778;2023-06-22T06:30:11;21.30;73.40
24678;DHT22;12800;53.094;8.778;2023-06-22T06:32:38;21.30;73.60
24678;DHT22;12800;53.094;8.778;2023-06-22T06:35:09;21.30;73.70
24678;DHT22;12800;53.094;8.778;2023-06-22T06:37:39;21.30;73.90
24678;DHT22;12800;53.094;8.778;2023-06-22T06:40:09;21.30;74.00
24678;DHT22;12800;53.094;8.778;2023-06-22T06:42:39;21.40;74.00
24678;DHT22;12800;53.094;8.778;2023-06-22T06:45:08;21.40;73.80
24678;DHT22;12800;53.094;8.778;2023-06-22T06:47:33;21.50;73.80
24678;DHT22;12800;53.094;8.778;2023-06-22T06:49:59;21.60;73.70
24678;DHT22;12800;53.094;8.778;2023-06-22T06:52:25;21.70;73.40
24678;DHT22;12800;53.094;8.778;2023-06-22T06:54:51;21.70;73.20
24678;DHT22;12800;53.094;8.778;2023-06-22T06:57:18;21.80;73.10
24678;DHT22;12800;53.094;8.778;2023-06-22T06:59:43;21.90;72.90
24678;DHT22;12800;53.094;8.778;2023-06-22T07:02:09;22.00;72.70
24678;DHT22;12800;53.094;8.778;2023-06-22T07:04:35;22.00;72.20
24678;DHT22;12800;53.094;8.778;2023-06-22T07:07:02;22.20;72.20
24678;DHT22;12800;53.094;8.778;2023-06-22T07:09:28;22.20;71.90
24678;DHT22;12800;53.094;8.778;2023-06-22T07:11:54;22.20;71.60
24678;DHT22;12800;53.094;8.778;2023-06-22T07:14:19;22.30;71.60
24678;DHT22;12800;53.094;8.778;2023-06-22T07:16:45;22.30;71.50
24678;DHT22;12800;53.094;8.778;2023-06-22T07:19:13;22.30;71.40
24678;DHT22;12800;53.094;8.778;2023-06-22T07:21:39;22.40;71.50
24678;DHT22;12800;53.094;8.778;2023-06-22T07:24:06;22.40;71.40
24678;DHT22;12800;53.094;8.778;2023-06-22T07:26:32;22.50;71.40
24678;DHT22;12800;53.094;8.778;2023-06-22T07:28:58;22.50;71.40
24678;DHT22;12800;53.094;8.778;2023-06-22T07:31:24;22.60;71.30
24678;DHT22;12800;53.094;8.778;2023-06-22T07:33:50;22.60;71.30
24678;DHT22;12800;53.094;8.778;2023-06-22T07:36:17;22.70;71.20
24678;DHT22;12800;53.094;8.778;2023-06-22T07:38:43;22.70;71.10
24678;DHT22;12800;53.094;8.778;2023-06-22T07:41:08;22.80;71.00
24678;DHT22;12800;53.094;8.778;2023-06-22T07:43:34;22.80;70.80
24678;DHT22;12800;53.094;8.778;2023-06-22T07:46:03;22.90;70.70
24678;DHT22;12800;53.094;8.778;2023-06-22T07:48:28;23.00;70.70
24678;DHT22;12800;53.094;8.778;2023-06-22T07:50:54;23.00;70.00
24678;DHT22;12800;53.094;8.778;2023-06-22T07:53:20;23.10;69.50
24678;DHT22;12800;53.094;8.778;2023-06-22T07:55:47;23.10;69.60
24678;DHT22;12800;53.094;8.778;2023-06-22T07:58:12;23.20;69.10
24678;DHT22;12800;53.094;8.778;2023-06-22T08:00:38;23.30;68.90
24678;DHT22;12800;53.094;8.778;2023-06-22T08:03:03;23.30;68.60
24678;DHT22;12800;53.094;8.778;2023-06-22T08:05:30;23.40;68.30
24678;DHT22;12800;53.094;8.778;2023-06-22T08:07:56;23.50;67.90
24678;DHT22;12800;53.094;8.778;2023-06-22T08:10:21;23.60;67.50
24678;DHT22;12800;53.094;8.778;2023-06-22T08:12:47;23.60;67.30
24678;DHT22;12800;53.094;8.778;2023-06-22T08:15:13;23.70;66.90
24678;DHT22;12800;53.094;8.778;2023-06-22T08:17:39;23.80;66.80
24678;DHT22;12800;53.094;8.778;2023-06-22T08:20:06;23.90;66.50
24678;DHT22;12800;53.094;8.778;2023-06-22T08:22:35;24.00;66.30
24678;DHT22;12800;53.094;8.778;2023-06-22T08:25:02;24.00;66.20
24678;DHT22;12800;53.094;8.778;2023-06-22T08:27:30;24.00;66.00
24678;DHT22;12800;53.094;8.778;2023-06-22T08:29:57;24.10;65.90
24678;DHT22;12800;53.094;8.778;2023-06-22T08:32:25;24.20;65.90
24678;DHT22;12800;53.094;8.778;2023-06-22T08:34:55;24.20;65.80
24678;DHT22;12800;53.094;8.778;2023-06-22T08:37:21;24.30;65.10
24678;DHT22;12800;53.094;8.778;2023-06-22T08:39:50;24.30;64.60
24678;DHT22;12800;53.094;8.778;2023-06-22T08:42:16;24.40;64.60
24678;DHT22;12800;53.094;8.778;2023-06-22T08:44:41;24.40;64.10
24678;DHT22;12800;53.094;8.778;2023-06-22T08:47:07;24.40;64.10
24678;DHT22;12800;53.094;8.778;2023-06-22T08:49:33;24.50;63.90
24678;DHT22;12800;53.094;8.778;2023-06-22T08:51:58;24.60;63.70
24678;DHT22;12800;53.094;8.778;2023-06-22T08:54:24;24.70;63.60
24678;DHT22;12800;53.094;8.778;2023-06-22T08:56:50;24.80;63.30
24678;DHT22;12800;53.094;8.778;2023-06-22T08:59:15;24.90;63.10
24678;DHT22;12800;53.094;8.778;2023-06-22T09:01:41;25.00;62.50
24678;DHT22;12800;53.094;8.778;2023-06-22T09:04:11;25.00;61.90
24678;DHT22;12800;53.094;8.778;2023-06-22T09:06:37;25.10;61.40
24678;DHT22;12800;53.094;8.778;2023-06-22T09:09:10;25.10;61.40
24678;DHT22;12800;53.094;8.778;2023-06-22T09:11:35;25.20;61.20
24678;DHT22;12800;53.094;8.778;2023-06-22T09:14:01;25.20;61.00
24678;DHT22;12800;53.094;8.778;2023-06-22T09:16:27;25.20;61.10
24678;DHT22;12800;53.094;8.778;2023-06-22T09:18:52;25.30;60.60
24678;DHT22;12800;53.094;8.778;2023-06-22T09:21:18;25.40;60.80
24678;DHT22;12800;53.094;8.778;2023-06-22T09:23:44;25.40;60.60
24678;DHT22;12800;53.094;8.778;2023-06-22T09:26:12;25.50;60.10
24678;DHT22;12800;53.094;8.778;2023-06-22T09:28:38;25.60;60.80
24678;DHT22;12800;53.094;8.778;2023-06-22T09:31:03;25.70;59.70
24678;DHT22;12800;53.094;8.778;2023-06-22T09:33:29;25.70;59.30
24678;DHT22;12800;53.094;8.778;2023-06-22T09:35:55;25.80;59.30
24678;DHT22;12800;53.094;8.778;2023-06-22T09:38:21;25.90;58.80
24678;DHT22;12800;53.094;8.778;2023-06-22T09:40:47;26.00;58.60
24678;DHT22;12800;53.094;8.778;2023-06-22T09:43:13;26.10;58.50
24678;DHT22;12800;53.094;8.778;2023-06-22T09:45:39;26.20;58.50
24678;DHT22;12800;53.094;8.778;2023-06-22T09:48:05;26.30;58.20
24678;DHT22;12800;53.094;8.778;2023-06-22T09:50:30;26.30;58.20
24678;DHT22;12800;53.094;8.778;2023-06-22T09:52:56;26.40;57.90
24678;DHT22;12800;53.094;8.778;2023-06-22T09:55:22;26.40;57.70
24678;DHT22;12800;53.094;8.778;2023-06-22T09:57:48;26.50;57.50
24678;DHT22;12800;53.094;8.778;2023-06-22T10:00:17;26.60;57.80
24678;DHT22;12800;53.094;8.778;2023-06-22T10:02:44;26.60;57.90
24678;DHT22;12800;53.094;8.778;2023-06-22T10:05:10;26.60;57.80
24678;DHT22;12800;53.094;8.778;2023-06-22T10:07:36;26.70;57.60
24678;DHT22;12800;53.094;8.778;2023-06-22T10:10:06;26.70;57.60
24678;DHT22;12800;53.094;8.778;2023-06-22T10:12:32;26.80;57.50
24678;DHT22;12800;53.094;8.778;2023-06-22T10:14:57;26.80;57.30
24678;DHT22;12800;53.094;8.778;2023-06-22T10:17:23;26.90;57.30
24678;DHT22;12800;53.094;8.778;2023-06-22T10:19:49;27.00;58.10
24678;DHT22;12800;53.094;8.778;2023-06-22T10:22:14;27.00;57.20
24678;DHT22;12800;53.094;8.778;2023-06-22T10:24:40;27.10;57.10
24678;DHT22;12800;53.094;8.778;2023-06-22T10:27:10;27.20;57.10
24678;DHT22;12800;53.094;8.778;2023-06-22T10:29:36;27.20;57.10
24678;DHT22;12800;53.094;8.778;2023-06-22T10:32:02;27.20;56.90
24678;DHT22;12800;53.094;8.778;2023-06-22T10:34:27;27.30;56.80
24678;DHT22;12800;53.094;8.778;2023-06-22T10:36:53;27.40;56.70
24678;DHT22;12800;53.094;8.778;2023-06-22T10:39:19;27.40;56.20
24678;DHT22;12800;53.094;8.778;2023-06-22T10:41:44;27.40;56.50
24678;DHT22;12800;53.094;8.778;2023-06-22T10:44:10;27.40;56.60
24678;DHT22;12800;53.094;8.778;2023-06-22T10:46:36;27.50;56.50
24678;DHT22;12800;53.094;8.778;2023-06-22T10:49:01;27.60;56.20
24678;DHT22;12800;53.094;8.778;2023-06-22T10:51:27;27.70;56.00
24678;DHT22;12800;53.094;8.778;2023-06-22T10:53:53;27.80;55.70
24678;DHT22;12800;53.094;8.778;2023-06-22T10:56:19;27.80;55.50
24678;DHT22;12800;53.094;8.778;2023-06-22T10:58:45;27.90;55.70
24678;DHT22;12800;53.094;8.778;2023-06-22T11:01:11;28.00;55.30
24678;DHT22;12800;53.094;8.778;2023-06-22T11:03:37;28.10;55.20
24678;DHT22;12800;53.094;8.778;2023-06-22T11:06:03;28.20;55.50
24678;DHT22;12800;53.094;8.778;2023-06-22T11:08:28;28.30;55.30
24678;DHT22;12800;53.094;8.778;2023-06-22T11:10:54;28.40;55.10
24678;DHT22;12800;53.094;8.778;2023-06-22T11:13:19;28.50;54.50
24678;DHT22;12800;53.094;8.778;2023-06-22T11:15:45;28.50;54.40
24678;DHT22;12800;53.094;8.778;2023-06-22T11:18:10;28.60;54.80
24678;DHT22;12800;53.094;8.778;2023-06-22T11:20:36;28.60;54.60
24678;DHT22;12800;53.094;8.778;2023-06-22T11:23:07;28.60;54.40
24678;DHT22;12800;53.094;8.778;2023-06-22T11:25:33;28.60;53.70
24678;DHT22;12800;53.094;8.778;2023-06-22T11:28:04;28.60;53.70
24678;DHT22;12800;53.094;8.778;2023-06-22T11:30:30;28.60;53.80
24678;DHT22;12800;53.094;8.778;2023-06-22T11:32:58;28.60;53.70
24678;DHT22;12800;53.094;8.778;2023-06-22T11:35:23;28.50;54.00
24678;DHT22;12800;53.094;8.778;2023-06-22T11:37:49;28.50;54.10
24678;DHT22;12800;53.094;8.778;2023-06-22T11:40:15;28.60;54.40
24678;DHT22;12800;53.094;8.778;2023-06-22T11:42:40;28.60;54.10
24678;DHT22;12800;53.094;8.778;2023-06-22T11:45:06;28.60;53.90
24678;DHT22;12800;53.094;8.778;2023-06-22T11:47:32;28.70;53.70
24678;DHT22;12800;53.094;8.778;2023-06-22T11:49:58;28.70;53.60
24678;DHT22;12800;53.094;8.778;2023-06-22T11:52:23;28.80;53.60
24678;DHT22;12800;53.094;8.778;2023-06-22T11:54:49;28.90;53.70
24678;DHT22;12800;53.094;8.778;2023-06-22T11:57:15;28.90;53.70
24678;DHT22;12800;53.094;8.778;2023-06-22T11:59:41;29.10;53.20
24678;DHT22;12800;53.094;8.778;2023-06-22T12:02:06;29.10;53.00
24678;DHT22;12800;53.094;8.778;2023-06-22T12:04:33;29.20;52.80
24678;DHT22;12800;53.094;8.778;2023-06-22T12:06:58;29.20;52.40
24678;DHT22;12800;53.094;8.778;2023-06-22T12:09:24;29.10;52.50
24678;DHT22;12800;53.094;8.778;2023-06-22T12:11:50;29.10;52.50
24678;DHT22;12800;53.094;8.778;2023-06-22T12:14:15;29.10;52.20
24678;DHT22;12800;53.094;8.778;2023-06-22T12:16:41;29.10;52.10
24678;DHT22;12800;53.094;8.778;2023-06-22T12:19:09;29.10;52.40
24678;DHT22;12800;53.094;8.778;2023-06-22T12:21:35;29.10;52.40
24678;DHT22;12800;53.094;8.778;2023-06-22T12:24:00;29.10;52.30
24678;DHT22;12800;53.094;8.778;2023-06-22T12:26:26;29.20;52.40
24678;DHT22;12800;53.094;8.778;2023-06-22T12:28:52;29.20;52.40
24678;DHT22;12800;53.094;8.778;2023-06-22T12:31:17;29.30;52.20
24678;DHT22;12800;53.094;8.778;2023-06-22T12:33:43;29.30;52.10
24678;DHT22;12800;53.094;8.778;2023-06-22T12:36:08;29.40;52.10
24678;DHT22;12800;53.094;8.778;2023-06-22T12:38:34;29.50;51.80
24678;DHT22;12800;53.094;8.778;2023-06-22T12:41:00;29.50;51.80
24678;DHT22;12800;53.094;8.778;2023-06-22T12:43:25;29.60;51.50
24678;DHT22;12800;53.094;8.778;2023-06-22T12:45:51;29.60;51.40
24678;DHT22;12800;53.094;8.778;2023-06-22T12:48:16;29.70;51.70
24678;DHT22;12800;53.094;8.778;2023-06-22T12:50:42;29.70;51.30
24678;DHT22;12800;53.094;8.778;2023-06-22T12:53:08;29.60;51.50
24678;DHT22;12800;53.094;8.778;2023-06-22T12:55:33;29.60;51.40
24678;DHT22;12800;53.094;8.778;2023-06-22T12:57:59;29.50;51.20
24678;DHT22;12800;53.094;8.778;2023-06-22T13:00:25;29.40;51.20
24678;DHT22;12800;53.094;8.778;2023-06-22T13:02:50;29.40;51.30
24678;DHT22;12800;53.094;8.778;2023-06-22T13:05:18;29.30;51.50
24678;DHT22;12800;53.094;8.778;2023-06-22T13:07:44;29.10;51.80
24678;DHT22;12800;53.094;8.778;2023-06-22T13:10:11;29.00;51.70
24678;DHT22;12800;53.094;8.778;2023-06-22T13:12:36;28.90;52.00
24678;DHT22;12800;53.094;8.778;2023-06-22T13:15:02;28.80;51.90
24678;DHT22;12800;53.094;8.778;2023-06-22T13:17:28;28.70;52.30
24678;DHT22;12800;53.094;8.778;2023-06-22T13:19:54;28.70;52.60
24678;DHT22;12800;53.094;8.778;2023-06-22T13:22:34;28.70;52.60
24678;DHT22;12800;53.094;8.778;2023-06-22T13:25:06;28.70;52.80
24678;DHT22;12800;53.094;8.778;2023-06-22T13:27:31;28.70;52.90
24678;DHT22;12800;53.094;8.778;2023-06-22T13:29:57;28.70;53.00
24678;DHT22;12800;53.094;8.778;2023-06-22T13:32:23;28.80;53.20
24678;DHT22;12800;53.094;8.778;2023-06-22T13:34:49;28.80;53.10
24678;DHT22;12800;53.094;8.778;2023-06-22T13:37:14;28.80;52.90
24678;DHT22;12800;53.094;8.778;2023-06-22T13:39:40;28.80;52.60
24678;DHT22;12800;53.094;8.778;2023-06-22T13:42:05;28.90;52.60
24678;DHT22;12800;53.094;8.778;2023-06-22T13:44:31;28.80;52.50
24678;DHT22;12800;53.094;8.778;2023-06-22T13:46:57;28.70;52.60
24678;DHT22;12800;53.094;8.778;2023-06-22T13:49:23;28.60;52.80
24678;DHT22;12800;53.094;8.778;2023-06-22T13:51:48;28.50;53.10
24678;DHT22;12800;53.094;8.778;2023-06-22T13:54:15;28.50;53.10
24678;DHT22;12800;53.094;8.778;2023-06-22T13:56:40;28.40;53.20
24678;DHT22;12800;53.094;8.778;2023-06-22T13:59:06;28.40;53.40
24678;DHT22;12800;53.094;8.778;2023-06-22T14:01:36;28.40;53.40
24678;DHT22;12800;53.094;8.778;2023-06-22T14:04:01;28.40;53.40
24678;DHT22;12800;53.094;8.778;2023-06-22T14:06:27;28.40;53.40
24678;DHT22;12800;53.094;8.778;2023-06-22T14:08:53;28.40;53.70
24678;DHT22;12800;53.094;8.778;2023-06-22T14:11:19;28.30;53.80
24678;DHT22;12800;53.094;8.778;2023-06-22T14:13:44;28.20;53.80
24678;DHT22;12800;53.094;8.778;2023-06-22T14:16:10;28.20;54.20
24678;DHT22;12800;53.094;8.778;2023-06-22T14:18:36;28.10;54.40
24678;DHT22;12800;53.094;8.778;2023-06-22T14:21:02;28.10;54.50
24678;DHT22;12800;53.094;8.778;2023-06-22T14:23:27;28.00;54.70
24678;DHT22;12800;53.094;8.778;2023-06-22T14:25:53;27.90;55.00
24678;DHT22;12800;53.094;8.778;2023-06-22T14:28:19;27.80;55.30
24678;DHT22;12800;53.094;8.778;2023-06-22T14:30:44;27.70;55.50
24678;DHT22;12800;53.094;8.778;2023-06-22T14:33:10;27.60;55.70
24678;DHT22;12800;53.094;8.778;2023-06-22T14:35:36;27.60;55.90
24678;DHT22;12800;53.094;8.778;2023-06-22T14:38:01;27.50;56.20
24678;DHT22;12800;53.094;8.778;2023-06-22T14:40:27;27.40;56.40
24678;DHT22;12800;53.094;8.778;2023-06-22T14:42:53;27.40;56.70
24678;DHT22;12800;53.094;8.778;2023-06-22T14:45:18;27.30;56.70
24678;DHT22;12800;53.094;8.778;2023-06-22T14:47:44;27.30;56.90
24678;DHT22;12800;53.094;8.778;2023-06-22T14:50:09;27.30;56.90
24678;DHT22;12800;53.094;8.778;2023-06-22T14:52:35;27.30;56.80
24678;DHT22;12800;53.094;8.778;2023-06-22T14:55:01;27.30;57.00
24678;DHT22;12800;53.094;8.778;2023-06-22T14:57:26;27.30;57.10
24678;DHT22;12800;53.094;8.778;2023-06-22T14:59:52;27.20;57.30
24678;DHT22;12800;53.094;8.778;2023-06-22T15:02:17;27.20;57.40
24678;DHT22;12800;53.094;8.778;2023-06-22T15:04:43;27.20;57.60
24678;DHT22;12800;53.094;8.778;2023-06-22T15:07:09;27.20;57.80
24678;DHT22;12800;53.094;8.778;2023-06-22T15:09:34;27.10;57.80
24678;DHT22;12800;53.094;8.778;2023-06-22T15:12:00;27.10;58.10
24678;DHT22;12800;53.094;8.778;2023-06-22T15:14:28;27.00;58.40
24678;DHT22;12800;53.094;8.778;2023-06-22T15:16:55;26.90;59.00
24678;DHT22;12800;53.094;8.778;2023-06-22T15:19:20;26.90;59.50
24678;DHT22;12800;53.094;8.778;2023-06-22T15:21:46;26.90;60.20
24678;DHT22;12800;53.094;8.778;2023-06-22T15:24:11;26.80;61.30
24678;DHT22;12800;53.094;8.778;2023-06-22T15:26:37;26.80;61.30
24678;DHT22;12800;53.094;8.778;2023-06-22T15:29:03;26.70;61.10
24678;DHT22;12800;53.094;8.778;2023-06-22T15:31:29;26.60;61.20
24678;DHT22;12800;53.094;8.778;2023-06-22T15:33:54;26.60;61.50